AAL6185 KLAX-KSFO
Flight info
| Callsign | AAL6185 |
|---|---|
| Flight time | N/A |
| Altitude | 36000 |
| Route | SUMMR2 STOKD SERFR SERFR4 |
| Aircraft | A321/M-SDE3FGHIRWY/LB1 |
Departure
| Time | 2026-05-06 00:59 |
|---|---|
| Airport | Los Angeles International Airport (KLAX) |
Arrival
| Time | N/A |
|---|---|
| Airport | San Francisco International Airport (KSFO) |
| Time | Latitude | Longitude | Altitude | Speed | Heading |
|---|---|---|---|---|---|
| 2026-05-06 00:32 | 33.94024 | -118.40366 | 126 ft | 0 kts | 255° |
| 2026-05-06 00:47 | 33.94024 | -118.40362 | 126 ft | 3 kts | 255° |
| 2026-05-06 00:47 | 33.94033 | -118.40334 | 122 ft | 4 kts | 230° |
| 2026-05-06 00:48 | 33.94053 | -118.40317 | 122 ft | 4 kts | 186° |
| 2026-05-06 00:48 | 33.94067 | -118.40316 | 123 ft | 0 kts | 173° |
| 2026-05-06 00:53 | 33.94063 | -118.40316 | 122 ft | 2 kts | 173° |
| 2026-05-06 00:53 | 33.94011 | -118.40309 | 124 ft | 7 kts | 173° |
| 2026-05-06 00:53 | 33.93961 | -118.40300 | 123 ft | 7 kts | 172° |
| 2026-05-06 00:54 | 33.93904 | -118.40291 | 122 ft | 8 kts | 172° |
| 2026-05-06 00:54 | 33.93857 | -118.40254 | 122 ft | 10 kts | 109° |
| 2026-05-06 00:54 | 33.93861 | -118.40165 | 124 ft | 12 kts | 83° |
| 2026-05-06 00:54 | 33.93874 | -118.40052 | 126 ft | 15 kts | 82° |
| 2026-05-06 00:55 | 33.93887 | -118.39916 | 124 ft | 18 kts | 83° |
| 2026-05-06 00:55 | 33.93903 | -118.39758 | 126 ft | 20 kts | 83° |
| 2026-05-06 00:55 | 33.93921 | -118.39580 | 126 ft | 22 kts | 83° |
| 2026-05-06 00:55 | 33.93941 | -118.39384 | 121 ft | 25 kts | 83° |
| 2026-05-06 00:56 | 33.93963 | -118.39171 | 126 ft | 27 kts | 83° |
| 2026-05-06 00:56 | 33.93986 | -118.38943 | 126 ft | 28 kts | 83° |
| 2026-05-06 00:56 | 33.94011 | -118.38706 | 123 ft | 29 kts | 83° |
| 2026-05-06 00:56 | 33.94035 | -118.38464 | 124 ft | 29 kts | 83° |
| 2026-05-06 00:57 | 33.94059 | -118.38233 | 126 ft | 26 kts | 83° |
| 2026-05-06 00:57 | 33.94073 | -118.38098 | 126 ft | 14 kts | 83° |
| 2026-05-06 00:57 | 33.94074 | -118.38037 | 126 ft | 0 kts | 102° |
| 2026-05-06 00:58 | 33.94069 | -118.38025 | 122 ft | 2 kts | 118° |
| 2026-05-06 00:58 | 33.94054 | -118.38009 | 126 ft | 4 kts | 142° |
| 2026-05-06 00:58 | 33.94008 | -118.38009 | 123 ft | 10 kts | 201° |
| 2026-05-06 00:58 | 33.93974 | -118.38108 | 126 ft | 18 kts | 261° |
| 2026-05-06 00:59 | 33.93935 | -118.38485 | 124 ft | 82 kts | 262° |
| 2026-05-06 00:59 | 33.93838 | -118.39463 | 125 ft | 149 kts | 263° |
| 2026-05-06 00:59 | 33.93679 | -118.40863 | 330 ft | 182 kts | 261° |
| 2026-05-06 00:59 | 33.93444 | -118.42432 | 734 ft | 202 kts | 259° |
| 2026-05-06 01:00 | 33.93181 | -118.44135 | 1360 ft | 207 kts | 262° |
| 2026-05-06 01:00 | 33.93026 | -118.45847 | 2097 ft | 209 kts | 265° |
| 2026-05-06 01:00 | 33.92903 | -118.47641 | 2617 ft | 219 kts | 265° |
| 2026-05-06 01:00 | 33.92787 | -118.49500 | 2948 ft | 232 kts | 265° |
| 2026-05-06 01:01 | 33.92652 | -118.51548 | 3255 ft | 256 kts | 265° |
| 2026-05-06 01:01 | 33.92499 | -118.53709 | 4066 ft | 261 kts | 265° |
| 2026-05-06 01:01 | 33.92332 | -118.55910 | 4780 ft | 265 kts | 264° |
| 2026-05-06 01:01 | 33.92156 | -118.58136 | 5611 ft | 268 kts | 264° |
| 2026-05-06 01:02 | 33.91976 | -118.60380 | 6466 ft | 271 kts | 264° |
| 2026-05-06 01:02 | 33.91793 | -118.62660 | 7308 ft | 275 kts | 266° |
| 2026-05-06 01:02 | 33.91766 | -118.64972 | 8129 ft | 278 kts | 270° |
| 2026-05-06 01:02 | 33.91759 | -118.67310 | 8941 ft | 281 kts | 270° |
| 2026-05-06 01:03 | 33.91752 | -118.69682 | 9743 ft | 285 kts | 270° |
| 2026-05-06 01:03 | 33.91747 | -118.71270 | 10234 ft | 289 kts | 270° |
| 2026-05-06 01:03 | 33.91739 | -118.73786 | 10531 ft | 312 kts | 270° |
| 2026-05-06 01:03 | 33.91728 | -118.76481 | 10927 ft | 328 kts | 270° |
| 2026-05-06 01:04 | 33.91715 | -118.79249 | 11540 ft | 334 kts | 270° |
| 2026-05-06 01:04 | 33.91698 | -118.83020 | 11941 ft | 337 kts | 270° |
| 2026-05-06 01:04 | 33.91706 | -118.84899 | 12192 ft | 341 kts | 271° |
| 2026-05-06 01:04 | 33.91797 | -118.88721 | 13247 ft | 343 kts | 272° |
| 2026-05-06 01:05 | 33.91895 | -118.91601 | 13964 ft | 346 kts | 272° |
| 2026-05-06 01:05 | 33.91998 | -118.94512 | 14651 ft | 350 kts | 272° |
| 2026-05-06 01:05 | 33.92100 | -118.97448 | 15325 ft | 353 kts | 272° |
| 2026-05-06 01:05 | 33.92394 | -119.00399 | 15968 ft | 357 kts | 283° |
| 2026-05-06 01:06 | 33.92856 | -119.02302 | 16402 ft | 360 kts | 290° |
| 2026-05-06 01:06 | 33.93958 | -119.05025 | 17045 ft | 363 kts | 302° |
| 2026-05-06 01:06 | 33.95754 | -119.08456 | 17888 ft | 368 kts | 302° |
| 2026-05-06 01:06 | 33.97120 | -119.11082 | 18507 ft | 371 kts | 302° |
| 2026-05-06 01:07 | 33.98489 | -119.13734 | 19105 ft | 375 kts | 301° |
| 2026-05-06 01:07 | 33.99419 | -119.15544 | 19525 ft | 377 kts | 302° |
| 2026-05-06 01:07 | 34.00977 | -119.18096 | 20077 ft | 381 kts | 311° |
| 2026-05-06 01:07 | 34.02918 | -119.20279 | 20650 ft | 384 kts | 322° |
| 2026-05-06 01:08 | 34.05104 | -119.22164 | 21221 ft | 387 kts | 324° |
| 2026-05-06 01:08 | 34.07284 | -119.24027 | 21774 ft | 391 kts | 324° |
| 2026-05-06 01:08 | 34.09508 | -119.25936 | 22326 ft | 394 kts | 324° |
| 2026-05-06 01:08 | 34.11742 | -119.27864 | 22863 ft | 397 kts | 324° |
| 2026-05-06 01:09 | 34.14006 | -119.29818 | 23385 ft | 400 kts | 324° |
| 2026-05-06 01:09 | 34.16278 | -119.31779 | 23885 ft | 403 kts | 324° |
| 2026-05-06 01:09 | 34.18568 | -119.33754 | 24368 ft | 406 kts | 324° |
| 2026-05-06 01:09 | 34.20876 | -119.35744 | 24830 ft | 409 kts | 324° |
| 2026-05-06 01:10 | 34.23207 | -119.37750 | 25287 ft | 412 kts | 324° |
| 2026-05-06 01:10 | 34.25545 | -119.39765 | 25726 ft | 415 kts | 324° |
| 2026-05-06 01:10 | 34.27903 | -119.41801 | 26156 ft | 418 kts | 324° |
| 2026-05-06 01:10 | 34.30275 | -119.43848 | 26574 ft | 420 kts | 324° |
| 2026-05-06 01:11 | 34.32665 | -119.45913 | 26981 ft | 423 kts | 324° |
| 2026-05-06 01:11 | 34.35066 | -119.47990 | 27384 ft | 426 kts | 324° |
| 2026-05-06 01:11 | 34.37480 | -119.50082 | 27767 ft | 428 kts | 324° |
| 2026-05-06 01:11 | 34.39911 | -119.52193 | 28146 ft | 431 kts | 323° |
| 2026-05-06 01:12 | 34.42197 | -119.54548 | 28502 ft | 433 kts | 315° |
| 2026-05-06 01:12 | 34.44316 | -119.57158 | 28848 ft | 436 kts | 314° |
| 2026-05-06 01:12 | 34.46447 | -119.59793 | 29180 ft | 440 kts | 314° |
| 2026-05-06 01:12 | 34.48602 | -119.62454 | 29456 ft | 444 kts | 314° |
| 2026-05-06 01:13 | 34.50773 | -119.65131 | 29777 ft | 447 kts | 314° |
| 2026-05-06 01:13 | 34.52958 | -119.67821 | 30128 ft | 448 kts | 314° |
| 2026-05-06 01:13 | 34.55153 | -119.70524 | 30457 ft | 451 kts | 314° |
| 2026-05-06 01:13 | 34.57360 | -119.73239 | 30753 ft | 453 kts | 314° |
| 2026-05-06 01:14 | 34.61782 | -119.78688 | 31328 ft | 459 kts | 314° |
| 2026-05-06 01:14 | 34.64018 | -119.81453 | 31661 ft | 460 kts | 314° |
| 2026-05-06 01:14 | 34.66268 | -119.84240 | 31997 ft | 462 kts | 314° |
| 2026-05-06 01:15 | 34.68509 | -119.87022 | 32424 ft | 461 kts | 314° |
| 2026-05-06 01:15 | 34.70752 | -119.89807 | 32821 ft | 460 kts | 314° |
| 2026-05-06 01:15 | 34.72990 | -119.92585 | 33230 ft | 459 kts | 314° |
| 2026-05-06 01:15 | 34.75223 | -119.95356 | 33628 ft | 458 kts | 314° |
| 2026-05-06 01:16 | 34.77452 | -119.98125 | 34041 ft | 457 kts | 314° |
| 2026-05-06 01:16 | 34.79672 | -120.00882 | 34431 ft | 455 kts | 314° |
| 2026-05-06 01:16 | 34.81886 | -120.03630 | 34837 ft | 454 kts | 314° |
| 2026-05-06 01:16 | 34.84092 | -120.06377 | 35195 ft | 453 kts | 314° |
| 2026-05-06 01:17 | 34.86289 | -120.09119 | 35593 ft | 452 kts | 314° |